createdAt,value
2023-03-22T00:00:17.550Z,7.78
2023-03-22T00:02:44.373Z,7.70
2023-03-22T00:05:11.160Z,7.69
2023-03-22T00:07:38.053Z,7.67
2023-03-22T00:10:05.905Z,7.72
2023-03-22T00:12:32.652Z,7.75
2023-03-22T00:15:00.207Z,7.64
2023-03-22T00:17:27.068Z,7.61
2023-03-22T00:19:54.722Z,7.66
2023-03-22T00:22:21.935Z,7.68
2023-03-22T00:24:48.681Z,7.68
2023-03-22T00:27:15.981Z,7.70
2023-03-22T00:29:42.755Z,7.73
2023-03-22T00:32:09.394Z,7.61
2023-03-22T00:34:36.390Z,7.54
2023-03-22T00:37:03.127Z,7.56
2023-03-22T00:39:30.207Z,7.59
2023-03-22T00:41:57.115Z,7.56
2023-03-22T00:44:23.822Z,7.53
2023-03-22T00:46:50.822Z,7.58
2023-03-22T00:49:17.710Z,7.58
2023-03-22T00:51:44.596Z,7.61
2023-03-22T00:54:12.035Z,7.63
2023-03-22T00:56:38.762Z,7.66
2023-03-22T00:59:06.065Z,7.62
2023-03-22T01:01:33.014Z,7.61
2023-03-22T01:04:00.058Z,7.62
2023-03-22T01:06:26.883Z,7.46
2023-03-22T01:08:55.307Z,7.49
2023-03-22T01:11:22.121Z,7.39
2023-03-22T01:13:48.892Z,7.52
2023-03-22T01:16:15.806Z,7.47
2023-03-22T01:18:42.641Z,7.55
2023-03-22T01:21:09.670Z,7.39
2023-03-22T01:23:37.069Z,7.49
2023-03-22T01:26:05.040Z,7.53
2023-03-22T01:28:32.088Z,7.54
2023-03-22T01:31:02.786Z,7.57
2023-03-22T01:33:30.951Z,7.53
2023-03-22T01:35:57.799Z,7.58
2023-03-22T01:38:24.690Z,7.53
2023-03-22T01:40:52.229Z,7.39
2023-03-22T01:43:19.254Z,7.26
2023-03-22T01:45:53.484Z,7.25
2023-03-22T01:48:46.649Z,7.17
2023-03-22T01:51:25.419Z,7.28
2023-03-22T01:53:58.584Z,7.38
2023-03-22T01:56:27.254Z,7.39
2023-03-22T01:58:54.666Z,7.46
2023-03-22T02:01:22.063Z,7.47
2023-03-22T02:03:53.071Z,7.46
2023-03-22T02:06:20.262Z,7.45
2023-03-22T02:08:47.104Z,7.37
2023-03-22T02:11:21.964Z,7.25
2023-03-22T02:14:15.528Z,7.31
2023-03-22T02:17:05.805Z,7.42
2023-03-22T02:19:57.610Z,7.38
2023-03-22T02:22:46.034Z,7.27
2023-03-22T02:25:37.724Z,7.22
2023-03-22T02:28:26.377Z,7.25
2023-03-22T02:31:01.566Z,7.09
2023-03-22T02:34:06.202Z,7.14
2023-03-22T02:36:35.894Z,7.22
2023-03-22T02:39:46.914Z,7.19
2023-03-22T02:42:31.739Z,7.04
2023-03-22T02:45:01.917Z,7.10
2023-03-22T02:47:38.647Z,7.12
2023-03-22T02:50:27.034Z,7.13
2023-03-22T02:53:28.852Z,7.22
2023-03-22T02:55:59.729Z,7.27
2023-03-22T02:58:30.510Z,7.29
2023-03-22T03:01:01.871Z,7.37
2023-03-22T03:03:30.683Z,7.29
2023-03-22T03:06:01.232Z,7.28
2023-03-22T03:08:28.565Z,7.30
2023-03-22T03:10:55.938Z,7.12
2023-03-22T03:13:22.772Z,7.17
2023-03-22T03:15:54.102Z,7.15
2023-03-22T03:18:45.325Z,7.24
2023-03-22T03:21:38.701Z,7.15
2023-03-22T03:24:40.323Z,6.99
2023-03-22T03:27:50.034Z,7.11
2023-03-22T03:30:27.245Z,7.08
2023-03-22T03:32:59.419Z,7.08
2023-03-22T03:35:37.787Z,7.08
2023-03-22T03:38:10.148Z,7.02
2023-03-22T03:40:41.420Z,7.00
2023-03-22T03:43:09.157Z,7.04
2023-03-22T03:45:37.243Z,6.97
2023-03-22T03:48:11.473Z,6.94
2023-03-22T03:50:38.675Z,6.94
2023-03-22T03:53:05.865Z,6.91
2023-03-22T03:55:33.063Z,6.95
2023-03-22T03:57:59.792Z,6.92
2023-03-22T04:00:26.583Z,6.85
2023-03-22T04:02:53.348Z,6.86
2023-03-22T04:05:20.294Z,6.64
2023-03-22T04:07:47.094Z,6.60
2023-03-22T04:10:14.075Z,6.70
2023-03-22T04:12:40.965Z,6.64
2023-03-22T04:15:08.384Z,6.62
2023-03-22T04:17:35.194Z,6.68
2023-03-22T04:20:05.308Z,6.63
2023-03-22T04:22:38.563Z,6.63
2023-03-22T04:25:15.175Z,6.57
2023-03-22T04:27:42.857Z,6.54
2023-03-22T04:30:12.491Z,6.45
2023-03-22T04:32:39.390Z,6.32
2023-03-22T04:35:06.525Z,6.20
2023-03-22T04:37:33.827Z,6.14
2023-03-22T04:40:00.709Z,6.16
2023-03-22T04:42:27.453Z,6.12
2023-03-22T04:44:54.187Z,6.05
2023-03-22T04:47:20.932Z,6.09
2023-03-22T04:49:47.694Z,5.96
2023-03-22T04:52:14.440Z,6.03
2023-03-22T04:54:41.372Z,6.06
2023-03-22T04:57:08.118Z,5.82
2023-03-22T04:59:35.426Z,5.85
2023-03-22T05:02:02.330Z,5.81
2023-03-22T05:04:29.103Z,5.73
2023-03-22T05:06:55.823Z,5.73
2023-03-22T05:09:23.581Z,5.51
2023-03-22T05:11:50.630Z,5.58
2023-03-22T05:14:17.359Z,5.65
2023-03-22T05:16:44.145Z,5.76
2023-03-22T05:19:14.275Z,5.74
2023-03-22T05:21:44.014Z,5.49
2023-03-22T05:24:11.710Z,5.52
2023-03-22T05:26:42.415Z,5.49
2023-03-22T05:29:10.950Z,5.42
2023-03-22T05:31:37.816Z,5.49
2023-03-22T05:34:04.650Z,5.70
2023-03-22T05:36:31.543Z,5.70
2023-03-22T05:38:58.246Z,5.67
2023-03-22T05:41:25.087Z,5.59
2023-03-22T05:43:51.743Z,5.62
2023-03-22T05:46:18.432Z,5.63
2023-03-22T05:48:45.440Z,5.72
2023-03-22T05:51:17.738Z,5.78
2023-03-22T05:53:46.211Z,5.77
2023-03-22T05:56:13.736Z,5.82
2023-03-22T05:58:41.325Z,5.99
2023-03-22T06:01:11.713Z,6.25
2023-03-22T06:03:39.480Z,6.33
2023-03-22T06:06:10.726Z,6.64
2023-03-22T06:08:38.679Z,6.89
2023-03-22T06:11:06.048Z,7.08
2023-03-22T06:13:33.299Z,7.05
2023-03-22T06:16:02.253Z,7.23
2023-03-22T06:18:29.976Z,7.50
2023-03-22T06:20:56.819Z,7.27
2023-03-22T06:23:23.739Z,7.40
2023-03-22T06:25:50.570Z,7.76
2023-03-22T06:28:17.798Z,8.40
2023-03-22T06:30:44.685Z,8.62
2023-03-22T06:33:11.457Z,8.35
2023-03-22T06:35:38.169Z,8.46
2023-03-22T06:38:05.013Z,8.62
2023-03-22T06:40:31.710Z,9.45
2023-03-22T06:42:59.842Z,9.60
2023-03-22T06:45:33.401Z,10.18
2023-03-22T06:48:01.244Z,10.37
2023-03-22T06:50:29.060Z,10.47
2023-03-22T06:52:56.013Z,10.65
2023-03-22T06:55:22.764Z,11.13
2023-03-22T06:57:49.451Z,10.91
2023-03-22T07:00:16.875Z,11.33
2023-03-22T07:02:43.595Z,11.29
2023-03-22T07:05:11.079Z,10.91
2023-03-22T07:07:37.903Z,10.63
2023-03-22T07:10:05.212Z,10.74
2023-03-22T07:12:32.017Z,11.07
2023-03-22T07:14:59.068Z,10.63
2023-03-22T07:17:25.994Z,10.39
2023-03-22T07:19:53.455Z,11.65
2023-03-22T07:22:23.103Z,11.35
2023-03-22T07:24:56.477Z,10.33
2023-03-22T07:27:25.356Z,10.10
2023-03-22T07:29:52.293Z,9.76
2023-03-22T07:32:19.085Z,10.02
2023-03-22T07:34:45.844Z,10.23
2023-03-22T07:37:12.746Z,10.43
2023-03-22T07:39:39.708Z,10.67
2023-03-22T07:42:06.873Z,10.72
2023-03-22T07:44:33.837Z,11.27
2023-03-22T07:47:00.801Z,11.75
2023-03-22T07:49:28.010Z,12.13
2023-03-22T07:51:54.734Z,12.75
2023-03-22T07:54:32.954Z,12.17
2023-03-22T07:57:01.228Z,12.56
2023-03-22T07:59:28.138Z,13.39
2023-03-22T08:01:54.944Z,13.88
2023-03-22T08:04:22.723Z,13.31
2023-03-22T08:06:50.108Z,12.61
2023-03-22T08:09:17.284Z,12.70
2023-03-22T08:11:44.050Z,12.30
2023-03-22T08:14:11.054Z,11.93
2023-03-22T08:16:38.707Z,12.03
2023-03-22T08:19:05.695Z,13.18
2023-03-22T08:21:32.510Z,13.82
2023-03-22T08:23:59.311Z,14.24
2023-03-22T08:26:26.308Z,14.26
2023-03-22T08:28:53.140Z,14.43
2023-03-22T08:31:20.365Z,14.49
2023-03-22T08:33:47.225Z,14.43
2023-03-22T08:36:16.810Z,13.59
2023-03-22T08:38:45.397Z,13.16
2023-03-22T08:41:12.976Z,12.91
2023-03-22T08:43:39.781Z,13.29
2023-03-22T08:46:06.630Z,14.20
2023-03-22T08:48:34.028Z,15.00
2023-03-22T08:51:01.199Z,15.97
2023-03-22T08:53:28.305Z,16.74
2023-03-22T08:55:58.190Z,16.84
2023-03-22T08:58:24.968Z,16.54
2023-03-22T09:00:51.980Z,16.70
2023-03-22T09:03:18.854Z,15.79
2023-03-22T09:05:45.908Z,15.24
2023-03-22T09:08:19.257Z,15.10
2023-03-22T09:10:51.460Z,15.71
2023-03-22T09:13:18.547Z,16.09
2023-03-22T09:15:45.409Z,16.34
2023-03-22T09:18:12.450Z,16.50
2023-03-22T09:20:40.374Z,15.54
2023-03-22T09:23:07.275Z,16.24
2023-03-22T09:25:34.176Z,15.95
2023-03-22T09:28:01.277Z,16.67
2023-03-22T09:30:28.046Z,17.17
2023-03-22T09:32:54.894Z,16.94
2023-03-22T09:35:21.711Z,17.22
2023-03-22T09:37:49.638Z,17.52
2023-03-22T09:40:17.824Z,17.33
2023-03-22T09:42:48.283Z,16.16
2023-03-22T09:45:17.665Z,16.49
2023-03-22T09:47:46.951Z,16.85
2023-03-22T09:50:19.402Z,16.21
2023-03-22T09:52:46.312Z,17.40
2023-03-22T09:55:38.995Z,17.33
2023-03-22T09:58:30.431Z,17.26
2023-03-22T10:01:07.251Z,17.96
2023-03-22T10:03:55.420Z,17.48
2023-03-22T10:06:24.135Z,17.64
2023-03-22T10:09:14.408Z,18.28
2023-03-22T10:11:51.835Z,17.54
2023-03-22T10:14:27.794Z,17.78
2023-03-22T10:16:56.632Z,17.98
2023-03-22T10:19:31.781Z,17.86
2023-03-22T10:22:01.291Z,18.13
2023-03-22T10:24:36.963Z,17.65
2023-03-22T10:27:04.415Z,18.65
2023-03-22T10:29:36.448Z,17.18
2023-03-22T10:32:19.392Z,17.38
2023-03-22T10:34:47.414Z,18.29
2023-03-22T10:37:27.712Z,18.34
2023-03-22T10:39:56.132Z,19.01
2023-03-22T10:42:27.063Z,19.75
2023-03-22T10:45:01.955Z,19.05
2023-03-22T10:47:35.427Z,19.11
2023-03-22T10:50:05.618Z,18.55
2023-03-22T10:52:45.126Z,19.19
2023-03-22T10:55:14.417Z,19.33
2023-03-22T10:57:43.291Z,19.51
2023-03-22T11:00:12.788Z,18.89
2023-03-22T11:03:00.354Z,19.34
2023-03-22T11:05:29.144Z,19.99
2023-03-22T11:08:00.331Z,20.35
2023-03-22T11:10:34.972Z,18.98
2023-03-22T11:13:07.592Z,19.52
2023-03-22T11:15:36.518Z,19.79
2023-03-22T11:18:10.988Z,19.68
2023-03-22T11:20:44.056Z,20.12
2023-03-22T11:23:13.293Z,19.34
2023-03-22T11:25:46.517Z,19.53
2023-03-22T11:28:20.645Z,19.77
2023-03-22T11:31:01.669Z,19.81
2023-03-22T11:33:28.454Z,19.61
2023-03-22T11:36:00.838Z,19.67
2023-03-22T11:38:41.079Z,20.36
2023-03-22T11:41:21.632Z,19.98
2023-03-22T11:43:52.784Z,20.24
2023-03-22T11:46:21.375Z,20.83
2023-03-22T11:48:51.303Z,20.56
2023-03-22T11:51:27.172Z,20.70
2023-03-22T11:53:57.295Z,20.94
2023-03-22T11:56:28.546Z,20.12
2023-03-22T11:59:37.348Z,20.67
2023-03-22T12:02:18.718Z,20.89
2023-03-22T12:04:48.313Z,20.61
2023-03-22T12:07:17.490Z,20.80
2023-03-22T12:09:50.686Z,20.28
2023-03-22T12:12:27.806Z,20.71
2023-03-22T12:15:11.106Z,20.85
2023-03-22T12:17:41.135Z,20.92
2023-03-22T12:20:16.562Z,21.44
2023-03-22T12:22:51.372Z,21.87
2023-03-22T12:25:25.130Z,21.57
2023-03-22T12:27:58.539Z,21.33
2023-03-22T12:30:32.242Z,21.48
2023-03-22T12:33:06.699Z,21.38
2023-03-22T12:35:35.574Z,21.16
2023-03-22T12:38:20.018Z,21.18
2023-03-22T12:40:47.278Z,21.39
2023-03-22T12:43:40.332Z,21.96
2023-03-22T12:46:11.349Z,21.92
2023-03-22T12:49:03.188Z,21.91
2023-03-22T12:51:29.969Z,21.20
2023-03-22T12:53:58.117Z,20.95
2023-03-22T12:56:27.797Z,20.80
2023-03-22T12:58:57.943Z,21.38
2023-03-22T13:01:40.777Z,21.31
2023-03-22T13:04:46.959Z,21.63
2023-03-22T13:07:13.711Z,22.17
2023-03-22T13:09:45.829Z,22.11
2023-03-22T13:12:18.373Z,22.04
2023-03-22T13:14:51.315Z,22.24
2023-03-22T13:17:24.605Z,22.28
2023-03-22T13:20:20.212Z,22.46
2023-03-22T13:22:46.973Z,22.04
2023-03-22T13:25:34.885Z,22.34
2023-03-22T13:28:21.527Z,22.23
2023-03-22T13:30:54.204Z,22.28
2023-03-22T13:33:32.192Z,22.33
2023-03-22T13:36:23.731Z,22.24
2023-03-22T13:38:56.267Z,22.24
2023-03-22T13:41:33.298Z,22.26
2023-03-22T13:44:02.334Z,22.04
2023-03-22T13:46:45.036Z,22.39
2023-03-22T13:49:46.609Z,22.23
2023-03-22T13:52:24.834Z,22.31
2023-03-22T13:54:54.234Z,22.10
2023-03-22T13:57:46.690Z,22.19
2023-03-22T14:00:30.418Z,22.07
2023-03-22T14:03:02.618Z,22.13
2023-03-22T14:05:33.307Z,21.97
2023-03-22T14:08:01.093Z,21.66
2023-03-22T14:10:47.331Z,21.86
2023-03-22T14:13:41.478Z,21.86
2023-03-22T14:16:36.244Z,21.70
2023-03-22T14:19:04.437Z,21.59
2023-03-22T14:21:44.597Z,21.51
